Time;durP1;ratioP1;P1;durP2;ratioP2;P2;SDS_P1;SDS_P2;PMS_P1;PMS_P2;Temp;Humidity;BMP_temperature;BMP_pressure;BME280_temperature;BME280_humidity;BME280_pressure;Samples;Min_cycle;Max_cycle;Signal;HPM_P1;HPM_P2
2022/09/22 00:01:06;;;;;;;1.70;1.60;;;;;;;;;;5013964;28;20021;-63
2022/09/22 00:03:36;;;;;;;1.52;1.42;;;;;;;;;;5016480;28;20219;-63
2022/09/22 00:06:05;;;;;;;4.63;2.00;;;;;;;;;;5013429;28;20105;-63
2022/09/22 00:08:32;;;;;;;1.80;1.70;;;;;;;;;;5014975;28;20077;-63
2022/09/22 00:10:59;;;;;;;1.95;1.77;;;;;;;;;;5013713;28;20393;-63
2022/09/22 00:13:24;;;;;;;2.72;1.73;;;;;;;;;;5015321;28;20029;-63
2022/09/22 00:15:49;;;;;;;1.80;1.70;;;;;;;;;;5015604;28;20070;-63
2022/09/22 00:18:15;;;;;;;1.93;1.70;;;;;;;;;;5015337;28;20057;-63
2022/09/22 00:20:40;;;;;;;2.57;1.67;;;;;;;;;;5015536;28;20117;-63
2022/09/22 00:23:05;;;;;;;1.93;1.73;;;;;;;;;;5014929;28;20107;-63
2022/09/22 00:25:30;;;;;;;2.20;1.80;;;;;;;;;;5013211;28;20034;-64
2022/09/22 00:27:56;;;;;;;2.40;1.63;;;;;;;;;;4997161;28;20042;-63
2022/09/22 00:30:21;;;;;;;1.77;1.60;;;;;;;;;;4994796;28;20175;-63
2022/09/22 00:32:46;;;;;;;1.42;1.33;;;;;;;;;;4995298;28;20038;-63
2022/09/22 00:35:12;;;;;;;1.83;1.73;;;;;;;;;;4994922;28;20058;-64
2022/09/22 00:37:38;;;;;;;1.83;1.63;;;;;;;;;;4994473;28;20034;-63
2022/09/22 00:40:03;;;;;;;1.90;1.70;;;;;;;;;;4996287;28;20488;-63
2022/09/22 00:42:28;;;;;;;2.33;1.57;;;;;;;;;;4994436;28;20031;-63
2022/09/22 00:44:54;;;;;;;2.60;2.00;;;;;;;;;;4991929;28;20508;-63
2022/09/22 00:47:19;;;;;;;1.60;1.50;;;;;;;;;;4994360;28;20030;-63
2022/09/22 00:49:44;;;;;;;1.50;1.40;;;;;;;;;;4994231;28;20113;-63
2022/09/22 00:52:11;;;;;;;2.07;1.80;;;;;;;;;;4995929;28;20045;-63
2022/09/22 00:54:37;;;;;;;3.53;2.20;;;;;;;;;;4994667;28;20408;-63
2022/09/22 00:57:09;;;;;;;1.97;1.50;;;;;;;;;;4994689;28;20033;-62
2022/09/22 00:59:34;;;;;;;1.60;1.40;;;;;;;;;;5002438;28;20089;-62
2022/09/22 01:02:00;;;;;;;2.20;2.00;;;;;;;;;;4994830;28;20534;-62
2022/09/22 01:04:25;;;;;;;2.20;2.00;;;;;;;;;;4988877;28;20804;-62
2022/09/22 01:06:51;;;;;;;2.43;1.80;;;;;;;;;;4989528;28;20492;-62
2022/09/22 01:09:17;;;;;;;2.10;1.90;;;;;;;;;;4994969;28;20515;-62
2022/09/22 01:11:42;;;;;;;3.33;1.43;;;;;;;;;;4992834;28;20022;-62
2022/09/22 01:14:16;;;;;;;4.57;2.03;;;;;;;;;;4990595;28;20567;-62
2022/09/22 01:16:52;;;;;;;3.23;2.13;;;;;;;;;;4992803;28;20030;-62
2022/09/22 01:19:36;;;;;;;3.43;1.90;;;;;;;;;;4994894;28;20030;-62
2022/09/22 01:22:13;;;;;;;4.30;1.97;;;;;;;;;;4992687;28;20030;-62
2022/09/22 01:24:55;;;;;;;2.60;2.10;;;;;;;;;;4994405;28;20026;-62
2022/09/22 01:27:26;;;;;;;1.93;1.80;;;;;;;;;;5008956;28;20058;-62
2022/09/22 01:30:05;;;;;;;1.83;1.60;;;;;;;;;;5013921;28;20553;-61
2022/09/22 01:32:32;;;;;;;1.83;1.60;;;;;;;;;;5012968;28;20092;-64
2022/09/22 01:35:07;;;;;;;1.87;1.77;;;;;;;;;;5012243;28;20022;-62
2022/09/22 01:37:45;;;;;;;3.33;1.80;;;;;;;;;;5013591;28;20056;-62
2022/09/22 01:40:15;;;;;;;3.33;1.93;;;;;;;;;;5013228;28;20487;-61
2022/09/22 01:42:52;;;;;;;1.53;1.40;;;;;;;;;;5012527;28;20116;-63
2022/09/22 01:45:25;;;;;;;1.80;1.70;;;;;;;;;;5012300;28;20021;-63
2022/09/22 01:47:56;;;;;;;3.17;1.97;;;;;;;;;;5012170;28;20088;-62
2022/09/22 01:50:27;;;;;;;2.43;1.60;;;;;;;;;;5010858;28;20031;-62
2022/09/22 01:52:54;;;;;;;3.13;1.80;;;;;;;;;;5009594;28;20981;-62
2022/09/22 01:55:45;;;;;;;2.50;2.17;;;;;;;;;;5013099;28;20450;-63
2022/09/22 01:58:15;;;;;;;2.10;1.70;;;;;;;;;;5009068;28;20052;-62
2022/09/22 02:00:47;;;;;;;2.47;2.03;;;;;;;;;;5013462;28;20040;-62
2022/09/22 02:03:15;;;;;;;3.67;1.90;;;;;;;;;;5012344;28;20468;-62
2022/09/22 02:05:43;;;;;;;2.57;2.30;;;;;;;;;;5012310;28;20029;-63
2022/09/22 02:08:12;;;;;;;2.70;1.60;;;;;;;;;;5012513;28;20076;-63
2022/09/22 02:10:40;;;;;;;1.97;1.87;;;;;;;;;;5013777;28;20051;-63
2022/09/22 02:13:05;;;;;;;3.60;2.17;;;;;;;;;;5012458;28;20791;-63
2022/09/22 02:18:21;;;;;;;1.90;1.53;;;;;;;;;;5013575;28;20376;-63
2022/09/22 02:20:46;;;;;;;1.53;1.43;;;;;;;;;;5012998;28;20080;-64
2022/09/22 02:23:11;;;;;;;4.23;2.10;;;;;;;;;;5012189;28;20427;-62
2022/09/22 02:25:38;;;;;;;2.00;1.87;;;;;;;;;;5011431;28;20041;-63
2022/09/22 02:28:04;;;;;;;2.17;1.97;;;;;;;;;;5012150;28;20033;-63
2022/09/22 02:30:30;;;;;;;3.20;2.63;;;;;;;;;;4999741;28;20026;-63
2022/09/22 02:32:56;;;;;;;2.13;1.93;;;;;;;;;;5011845;28;20485;-63
2022/09/22 02:35:23;;;;;;;3.97;2.70;;;;;;;;;;5013431;28;20021;-63
2022/09/22 02:37:53;;;;;;;2.60;2.40;;;;;;;;;;5010882;28;20037;-63
2022/09/22 02:40:24;;;;;;;2.27;2.07;;;;;;;;;;5011495;28;20026;-63
2022/09/22 02:42:49;;;;;;;2.33;2.10;;;;;;;;;;5010522;28;20025;-63
2022/09/22 02:45:17;;;;;;;2.40;2.20;;;;;;;;;;5012267;28;20468;-63
2022/09/22 02:47:50;;;;;;;4.00;2.37;;;;;;;;;;5011768;28;20033;-63
2022/09/22 02:50:16;;;;;;;2.37;2.10;;;;;;;;;;5013565;28;20071;-63
2022/09/22 02:52:42;;;;;;;2.27;1.87;;;;;;;;;;5010849;28;20578;-63
2022/09/22 02:55:08;;;;;;;2.13;1.93;;;;;;;;;;5013603;28;20026;-63
2022/09/22 02:57:34;;;;;;;2.50;2.30;;;;;;;;;;5011644;28;20491;-63
2022/09/22 02:59:59;;;;;;;6.40;2.13;;;;;;;;;;5011966;28;20109;-63
2022/09/22 03:02:24;;;;;;;2.13;1.93;;;;;;;;;;4993453;28;20431;-63
2022/09/22 03:04:52;;;;;;;3.43;3.13;;;;;;;;;;5010665;28;20048;-63
2022/09/22 03:07:17;;;;;;;2.30;2.10;;;;;;;;;;5013731;28;20093;-63
2022/09/22 03:09:43;;;;;;;2.80;2.17;;;;;;;;;;5015000;28;20034;-63
2022/09/22 03:12:08;;;;;;;2.27;2.00;;;;;;;;;;5002970;28;21156;-63
2022/09/22 03:14:33;;;;;;;3.80;2.47;;;;;;;;;;5015821;28;20030;-63
2022/09/22 03:16:58;;;;;;;3.33;2.50;;;;;;;;;;5001978;28;20033;-67
2022/09/22 03:19:24;;;;;;;2.03;1.83;;;;;;;;;;5014835;28;20026;-63
2022/09/22 03:21:49;;;;;;;3.80;2.00;;;;;;;;;;5016744;28;20037;-63
2022/09/22 03:24:14;;;;;;;3.03;2.10;;;;;;;;;;5016432;28;20057;-63
2022/09/22 03:26:40;;;;;;;2.50;2.30;;;;;;;;;;5016078;28;20236;-63
2022/09/22 03:29:05;;;;;;;7.53;2.93;;;;;;;;;;5014808;28;20915;-63
2022/09/22 03:31:30;;;;;;;2.43;2.23;;;;;;;;;;5013039;28;20111;-63
2022/09/22 03:33:55;;;;;;;2.70;2.20;;;;;;;;;;5014439;28;20502;-63
2022/09/22 03:36:20;;;;;;;3.30;2.43;;;;;;;;;;5015625;28;20040;-63
2022/09/22 03:38:46;;;;;;;2.40;2.20;;;;;;;;;;5014701;28;20036;-63
2022/09/22 03:41:11;;;;;;;2.47;2.10;;;;;;;;;;5011490;28;20273;-63
2022/09/22 03:43:36;;;;;;;4.73;2.20;;;;;;;;;;5014784;28;20079;-63
2022/09/22 03:46:02;;;;;;;3.07;2.47;;;;;;;;;;5014368;28;20158;-63
2022/09/22 03:48:28;;;;;;;3.00;2.50;;;;;;;;;;5012977;28;20030;-63
2022/09/22 03:50:53;;;;;;;3.87;2.47;;;;;;;;;;5010773;28;20026;-63
2022/09/22 03:53:18;;;;;;;3.73;2.30;;;;;;;;;;4994835;28;20562;-63
2022/09/22 03:55:44;;;;;;;2.10;1.90;;;;;;;;;;5014560;28;20026;-63
2022/09/22 03:58:09;;;;;;;2.63;2.40;;;;;;;;;;5014916;28;20044;-62
2022/09/22 04:00:34;;;;;;;2.73;2.47;;;;;;;;;;5014305;28;20037;-62
2022/09/22 04:02:59;;;;;;;2.83;2.07;;;;;;;;;;5013446;28;20042;-62
2022/09/22 04:05:25;;;;;;;2.77;2.57;;;;;;;;;;5015789;28;20044;-63
2022/09/22 04:07:50;;;;;;;2.67;2.03;;;;;;;;;;5013985;28;20034;-63
2022/09/22 04:10:16;;;;;;;2.23;2.10;;;;;;;;;;5014156;28;20028;-63
2022/09/22 04:12:41;;;;;;;2.17;1.97;;;;;;;;;;5016054;28;20021;-63
2022/09/22 04:15:06;;;;;;;4.23;2.27;;;;;;;;;;5013631;28;20495;-63
2022/09/22 04:17:31;;;;;;;2.57;1.93;;;;;;;;;;4996187;28;20033;-64
2022/09/22 04:19:58;;;;;;;1.73;1.63;;;;;;;;;;5012189;28;20033;-63
2022/09/22 04:22:23;;;;;;;2.90;2.57;;;;;;;;;;5013000;28;20030;-63
2022/09/22 04:24:48;;;;;;;2.57;2.33;;;;;;;;;;5009009;28;20036;-65
2022/09/22 04:27:14;;;;;;;4.83;2.30;;;;;;;;;;5012392;28;20057;-63
2022/09/22 04:29:39;;;;;;;4.10;2.30;;;;;;;;;;5014100;28;20021;-63
2022/09/22 04:32:04;;;;;;;3.50;2.80;;;;;;;;;;5013810;28;20041;-64
2022/09/22 04:34:29;;;;;;;3.07;2.77;;;;;;;;;;5015504;28;20025;-63
2022/09/22 04:36:55;;;;;;;3.30;2.87;;;;;;;;;;5014296;28;20811;-63
2022/09/22 04:39:20;;;;;;;4.10;2.47;;;;;;;;;;5014495;28;20083;-62
2022/09/22 04:41:45;;;;;;;4.80;2.80;;;;;;;;;;5013767;28;20033;-62
2022/09/22 04:44:10;;;;;;;4.00;2.93;;;;;;;;;;5013155;28;20109;-62
2022/09/22 04:46:36;;;;;;;2.93;2.30;;;;;;;;;;5013237;28;20037;-62
2022/09/22 04:49:01;;;;;;;4.50;2.30;;;;;;;;;;5012672;28;20022;-63
2022/09/22 04:51:26;;;;;;;2.73;2.40;;;;;;;;;;5013763;28;20022;-61
2022/09/22 04:53:52;;;;;;;2.37;2.07;;;;;;;;;;5013547;28;20337;-63
2022/09/22 04:56:17;;;;;;;3.40;2.37;;;;;;;;;;5013244;28;20040;-63
2022/09/22 04:58:42;;;;;;;2.37;1.90;;;;;;;;;;4997067;28;20026;-62
2022/09/22 05:01:07;;;;;;;3.27;2.97;;;;;;;;;;5012574;28;20071;-63
2022/09/22 05:03:36;;;;;;;3.43;2.17;;;;;;;;;;4996707;28;20112;-63
2022/09/22 05:06:02;;;;;;;3.13;2.20;;;;;;;;;;5014216;28;20032;-63
2022/09/22 05:08:27;;;;;;;7.13;2.57;;;;;;;;;;5013557;28;20025;-63
2022/09/22 05:10:52;;;;;;;4.97;3.33;;;;;;;;;;5015021;28;20021;-60
2022/09/22 05:13:18;;;;;;;7.37;2.90;;;;;;;;;;5012396;28;20022;-70
2022/09/22 05:15:43;;;;;;;2.50;2.30;;;;;;;;;;5010078;28;20052;-66
2022/09/22 05:18:08;;;;;;;2.30;2.10;;;;;;;;;;5011849;28;20041;-70
2022/09/22 05:20:33;;;;;;;2.67;2.30;;;;;;;;;;5013700;28;20026;-70
2022/09/22 05:22:59;;;;;;;2.40;2.20;;;;;;;;;;5012555;28;20416;-68
2022/09/22 05:25:24;;;;;;;3.43;2.00;;;;;;;;;;5013127;28;20032;-69
2022/09/22 05:27:53;;;;;;;3.03;2.70;;;;;;;;;;4995696;28;20065;-70
2022/09/22 05:30:20;;;;;;;2.90;2.60;;;;;;;;;;5012688;28;20069;-69
2022/09/22 05:32:46;;;;;;;2.70;2.43;;;;;;;;;;4996322;28;20112;-68
2022/09/22 05:35:12;;;;;;;2.50;2.30;;;;;;;;;;5014169;28;20026;-69
2022/09/22 05:37:37;;;;;;;5.30;2.33;;;;;;;;;;5013331;28;20589;-69
2022/09/22 05:40:02;;;;;;;5.50;2.50;;;;;;;;;;5011978;28;20092;-69
2022/09/22 05:42:28;;;;;;;2.80;2.33;;;;;;;;;;5012640;28;20033;-69
2022/09/22 05:44:53;;;;;;;2.53;2.03;;;;;;;;;;5014071;28;20476;-64
2022/09/22 05:47:18;;;;;;;2.53;2.33;;;;;;;;;;5013076;28;20041;-63
2022/09/22 05:49:43;;;;;;;5.60;3.13;;;;;;;;;;5013018;28;20021;-63
2022/09/22 05:52:09;;;;;;;4.23;2.87;;;;;;;;;;5010746;28;20026;-64
2022/09/22 05:54:34;;;;;;;3.30;2.80;;;;;;;;;;5013222;28;20040;-64
2022/09/22 05:56:59;;;;;;;2.63;2.43;;;;;;;;;;5013976;28;20037;-65
2022/09/22 05:59:24;;;;;;;4.80;2.50;;;;;;;;;;5013237;28;20026;-64
2022/09/22 06:01:50;;;;;;;5.07;2.60;;;;;;;;;;5011910;28;20943;-65
2022/09/22 06:04:15;;;;;;;4.38;3.00;;;;;;;;;;5014627;28;20585;-64
2022/09/22 06:06:40;;;;;;;2.72;2.53;;;;;;;;;;5017610;28;20436;-64
2022/09/22 06:09:06;;;;;;;3.85;2.88;;;;;;;;;;4999867;28;20056;-64
2022/09/22 06:11:31;;;;;;;2.65;2.40;;;;;;;;;;5014697;28;20113;-64
2022/09/22 06:13:56;;;;;;;7.65;2.88;;;;;;;;;;5012830;28;20432;-64
2022/09/22 06:16:21;;;;;;;2.55;2.30;;;;;;;;;;5011371;28;20036;-64
2022/09/22 06:18:47;;;;;;;3.58;3.28;;;;;;;;;;5012767;28;20033;-65
2022/09/22 06:21:12;;;;;;;3.95;2.78;;;;;;;;;;5013445;28;20040;-64
2022/09/22 06:23:38;;;;;;;2.80;2.60;;;;;;;;;;5011938;28;20033;-64
2022/09/22 06:26:04;;;;;;;2.42;2.22;;;;;;;;;;5012590;28;20199;-64
2022/09/22 06:28:29;;;;;;;2.80;2.28;;;;;;;;;;5011982;28;20094;-65
2022/09/22 06:30:57;;;;;;;3.38;2.58;;;;;;;;;;5011704;28;20112;-63
2022/09/22 06:33:25;;;;;;;2.72;2.25;;;;;;;;;;5011115;28;20029;-64
2022/09/22 06:35:51;;;;;;;2.25;2.05;;;;;;;;;;5011168;28;20025;-64
2022/09/22 06:38:16;;;;;;;2.42;1.80;;;;;;;;;;4994723;28;20025;-64
2022/09/22 06:40:41;;;;;;;2.63;2.03;;;;;;;;;;4993286;28;20037;-65
2022/09/22 06:43:11;;;;;;;3.95;2.45;;;;;;;;;;5013201;28;20040;-64
2022/09/22 06:45:41;;;;;;;2.55;2.25;;;;;;;;;;5010772;28;20442;-65
2022/09/22 06:48:07;;;;;;;3.13;2.92;;;;;;;;;;5010765;28;20025;-66
2022/09/22 06:50:32;;;;;;;3.10;2.75;;;;;;;;;;5011765;28;20067;-66
2022/09/22 06:52:58;;;;;;;2.50;2.30;;;;;;;;;;5011524;28;20026;-67
2022/09/22 06:55:23;;;;;;;2.50;2.30;;;;;;;;;;4995819;28;20030;-67
2022/09/22 06:57:50;;;;;;;2.50;2.30;;;;;;;;;;5016240;28;20476;-67
2022/09/22 07:00:16;;;;;;;2.88;2.50;;;;;;;;;;5012958;28;20076;-66
2022/09/22 07:02:42;;;;;;;3.20;2.30;;;;;;;;;;5014458;28;20048;-67
2022/09/22 07:05:07;;;;;;;2.47;2.28;;;;;;;;;;5000503;28;20038;-67
2022/09/22 07:07:32;;;;;;;7.82;4.03;;;;;;;;;;4994447;28;20114;-66
2022/09/22 07:09:58;;;;;;;2.17;2.05;;;;;;;;;;5010946;28;20029;-67
2022/09/22 07:12:24;;;;;;;3.72;2.13;;;;;;;;;;5011436;28;20036;-66
2022/09/22 07:14:51;;;;;;;3.15;2.08;;;;;;;;;;5011524;28;20571;-67
2022/09/22 07:17:16;;;;;;;2.65;2.45;;;;;;;;;;5011584;28;20026;-66
2022/09/22 07:19:41;;;;;;;1.95;1.85;;;;;;;;;;5009850;28;20407;-68
2022/09/22 07:22:07;;;;;;;2.10;1.90;;;;;;;;;;5012358;28;20017;-66
2022/09/22 07:24:33;;;;;;;2.33;2.03;;;;;;;;;;5011959;28;20744;-67
2022/09/22 07:27:03;;;;;;;2.30;2.10;;;;;;;;;;4996373;28;20240;-66
2022/09/22 07:29:28;;;;;;;2.13;1.90;;;;;;;;;;5012739;28;20026;-66
2022/09/22 07:31:55;;;;;;;2.97;2.45;;;;;;;;;;5011239;28;20026;-66
2022/09/22 07:34:20;;;;;;;2.67;2.45;;;;;;;;;;5012035;28;20037;-58
2022/09/22 07:36:47;;;;;;;3.20;2.63;;;;;;;;;;5011008;28;20073;-66
2022/09/22 07:39:13;;;;;;;2.30;2.10;;;;;;;;;;4982349;28;20060;-66
2022/09/22 07:41:41;;;;;;;3.15;2.70;;;;;;;;;;5011976;28;20026;-67
2022/09/22 07:46:52;;;;;;;2.65;1.90;;;;;;;;;;5011163;28;20525;-66
2022/09/22 07:49:18;;;;;;;3.30;3.00;;;;;;;;;;5011568;28;20034;-66
2022/09/22 07:51:43;;;;;;;2.58;2.28;;;;;;;;;;5011860;28;20029;-66
2022/09/22 07:54:09;;;;;;;3.38;2.70;;;;;;;;;;5015335;28;20487;-64
2022/09/22 07:56:35;;;;;;;2.90;2.35;;;;;;;;;;5015095;28;20033;-65
2022/09/22 07:59:06;;;;;;;2.63;2.10;;;;;;;;;;5013756;28;20540;-65
2022/09/22 08:01:31;;;;;;;3.13;2.30;;;;;;;;;;5015559;28;20025;-65
2022/09/22 08:03:57;;;;;;;2.08;1.98;;;;;;;;;;5018647;28;20320;-65
2022/09/22 08:06:22;;;;;;;3.55;2.10;;;;;;;;;;5016909;28;20025;-65
2022/09/22 08:08:52;;;;;;;3.05;2.35;;;;;;;;;;4996927;28;20029;-65
2022/09/22 08:11:18;;;;;;;2.67;2.47;;;;;;;;;;5016901;28;20025;-66
2022/09/22 08:13:54;;;;;;;2.30;2.20;;;;;;;;;;5015064;28;20025;-65
2022/09/22 08:16:21;;;;;;;2.20;2.00;;;;;;;;;;5014163;28;20519;-65
2022/09/22 08:18:53;;;;;;;3.13;2.78;;;;;;;;;;5014870;28;20056;-66
2022/09/22 08:21:18;;;;;;;2.28;2.08;;;;;;;;;;5016229;28;20024;-66
2022/09/22 08:23:44;;;;;;;3.00;2.80;;;;;;;;;;5015714;28;20033;-65
2022/09/22 08:26:10;;;;;;;4.47;2.00;;;;;;;;;;5014580;28;20327;-65
2022/09/22 08:28:35;;;;;;;2.95;2.65;;;;;;;;;;4996364;28;20046;-66
2022/09/22 08:31:01;;;;;;;3.00;2.50;;;;;;;;;;5015157;28;20030;-65
2022/09/22 08:33:28;;;;;;;2.20;2.00;;;;;;;;;;5013700;28;20922;-66
2022/09/22 08:35:54;;;;;;;3.17;2.88;;;;;;;;;;5012751;28;20172;-65
2022/09/22 08:38:22;;;;;;;2.70;2.13;;;;;;;;;;4995340;28;20034;-65
2022/09/22 08:40:57;;;;;;;2.00;1.90;;;;;;;;;;5014843;28;20021;-65
2022/09/22 08:43:22;;;;;;;;;;;;;;;;;;5014760;28;20068;-65
2022/09/22 08:45:48;;;;;;;5.07;3.75;;;;;;;;;;5014670;28;19940;-60
2022/09/22 08:53:55;;;;;;;2.95;2.35;;;;;;;;;;5014479;28;20111;-62
2022/09/22 08:56:21;;;;;;;2.40;2.20;;;;;;;;;;5014746;28;20503;-62
2022/09/22 08:59:00;;;;;;;3.47;2.08;;;;;;;;;;5012771;28;20034;-62
2022/09/22 09:01:37;;;;;;;2.85;1.70;;;;;;;;;;5012125;28;20034;-62
2022/09/22 09:04:21;;;;;;;2.25;2.10;;;;;;;;;;5013922;28;20030;-59
2022/09/22 09:06:46;;;;;;;2.28;1.60;;;;;;;;;;5014162;28;20704;-60
2022/09/22 09:09:19;;;;;;;1.90;1.80;;;;;;;;;;5014034;28;20034;-62
2022/09/22 09:11:47;;;;;;;1.88;1.77;;;;;;;;;;5013726;28;20032;-62
2022/09/22 09:14:16;;;;;;;2.03;1.92;;;;;;;;;;5013521;28;20029;-62
2022/09/22 09:16:56;;;;;;;4.25;2.15;;;;;;;;;;5008441;28;20034;-61
2022/09/22 09:19:41;;;;;;;1.73;1.63;;;;;;;;;;5011691;28;20418;-61
2022/09/22 09:22:26;;;;;;;6.10;2.30;;;;;;;;;;5012213;28;20026;-61
2022/09/22 09:24:55;;;;;;;3.20;2.40;;;;;;;;;;5012445;28;20124;-61
2022/09/22 09:27:23;;;;;;;2.97;2.05;;;;;;;;;;5012435;28;20053;-61
2022/09/22 09:30:07;;;;;;;2.05;1.95;;;;;;;;;;5014741;28;20128;-61
2022/09/22 09:32:33;;;;;;;2.40;2.20;;;;;;;;;;5013865;28;20035;-61
2022/09/22 09:34:59;;;;;;;3.45;1.90;;;;;;;;;;5013163;28;20025;-62
2022/09/22 09:37:24;;;;;;;2.22;1.98;;;;;;;;;;5015705;28;20052;-66
2022/09/22 09:39:50;;;;;;;3.53;2.35;;;;;;;;;;5015647;28;20116;-63
2022/09/22 09:42:25;;;;;;;2.83;1.83;;;;;;;;;;5013964;28;20037;-63
2022/09/22 09:44:52;;;;;;;4.43;2.25;;;;;;;;;;5000306;28;20611;-63
2022/09/22 09:47:33;;;;;;;1.92;1.83;;;;;;;;;;5004125;28;20455;-63
2022/09/22 09:49:58;;;;;;;3.55;2.15;;;;;;;;;;5011899;28;20028;-64
2022/09/22 09:52:25;;;;;;;2.00;1.90;;;;;;;;;;5011031;28;20033;-63
2022/09/22 09:54:51;;;;;;;2.20;2.10;;;;;;;;;;5010455;28;20045;-64
2022/09/22 09:57:17;;;;;;;1.90;1.80;;;;;;;;;;4995179;28;20467;-64
2022/09/22 10:02:29;;;;;;;2.95;1.65;;;;;;;;;;5013020;28;20076;-60
2022/09/22 10:04:55;;;;;;;2.08;1.95;;;;;;;;;;5012784;28;20096;-63
2022/09/22 10:07:25;;;;;;;1.75;1.65;;;;;;;;;;5014081;28;20038;-66
2022/09/22 10:09:51;;;;;;;2.05;1.95;;;;;;;;;;5015359;28;20018;-66
2022/09/22 10:12:27;;;;;;;2.05;1.92;;;;;;;;;;5013238;28;20026;-66
2022/09/22 10:14:54;;;;;;;3.10;1.80;;;;;;;;;;5009605;28;20107;-64
2022/09/22 10:17:20;;;;;;;2.33;2.15;;;;;;;;;;5008922;28;20137;-63
2022/09/22 10:19:45;;;;;;;1.92;1.83;;;;;;;;;;5013658;28;20331;-62
2022/09/22 10:22:15;;;;;;;1.88;1.77;;;;;;;;;;5013559;28;20542;-63
2022/09/22 10:24:40;;;;;;;1.92;1.80;;;;;;;;;;5012345;28;20779;-66
2022/09/22 10:27:06;;;;;;;1.98;1.88;;;;;;;;;;4996558;28;20060;-67
2022/09/22 10:29:31;;;;;;;1.73;1.63;;;;;;;;;;5013693;28;20029;-65
2022/09/22 10:32:04;;;;;;;2.17;1.90;;;;;;;;;;5013700;28;20102;-65
2022/09/22 10:34:30;;;;;;;2.08;1.88;;;;;;;;;;5014143;28;20032;-66
2022/09/22 10:36:56;;;;;;;1.85;1.75;;;;;;;;;;5012286;28;20033;-67
2022/09/22 10:39:26;;;;;;;2.20;1.80;;;;;;;;;;5013002;28;20058;-65
2022/09/22 10:41:53;;;;;;;3.33;1.80;;;;;;;;;;5008489;28;20064;-66
2022/09/22 10:44:24;;;;;;;1.80;1.70;;;;;;;;;;5009354;28;20037;-65
2022/09/22 10:47:00;;;;;;;2.22;2.00;;;;;;;;;;5008595;28;20040;-63
2022/09/22 10:49:39;;;;;;;1.83;1.73;;;;;;;;;;5012859;28;20026;-66
2022/09/22 10:52:08;;;;;;;2.10;1.90;;;;;;;;;;5012358;28;20014;-65
2022/09/22 10:54:33;;;;;;;1.83;1.73;;;;;;;;;;5013733;28;20026;-64
2022/09/22 10:57:08;;;;;;;2.28;2.08;;;;;;;;;;5013062;28;20025;-64
2022/09/22 10:59:48;;;;;;;2.58;2.38;;;;;;;;;;5012548;28;20106;-63
2022/09/22 11:02:20;;;;;;;9.98;3.97;;;;;;;;;;5011551;28;20057;-65
2022/09/22 11:04:53;;;;;;;18.17;6.72;;;;;;;;;;5011811;28;20111;-62
2022/09/22 11:13:30;;;;;;;3.42;2.83;;;;;;;;;;5013148;28;20491;-63
2022/09/22 11:16:05;;;;;;;3.20;3.00;;;;;;;;;;5014412;28;20483;-63
2022/09/22 11:18:30;;;;;;;2.28;2.17;;;;;;;;;;5012678;28;20065;-61
2022/09/22 11:21:06;;;;;;;3.17;2.40;;;;;;;;;;5012173;28;20141;-62
2022/09/22 11:23:31;;;;;;;1.75;1.65;;;;;;;;;;5013043;28;20014;-61
2022/09/22 11:26:12;;;;;;;2.95;2.35;;;;;;;;;;5011193;28;20057;-63
2022/09/22 11:28:56;;;;;;;3.13;2.13;;;;;;;;;;5011314;28;20037;-63
2022/09/22 11:31:21;;;;;;;2.53;1.63;;;;;;;;;;5012332;28;20442;-66
2022/09/22 11:33:59;;;;;;;1.70;1.30;;;;;;;;;;5016022;28;20044;-65
2022/09/22 11:36:30;;;;;;;2.75;1.30;;;;;;;;;;5016284;28;20141;-66
2022/09/22 11:38:58;;;;;;;1.77;1.67;;;;;;;;;;5015599;28;20072;-66
2022/09/22 11:41:33;;;;;;;1.40;1.30;;;;;;;;;;5017028;28;20100;-62
2022/09/22 11:44:04;;;;;;;1.52;1.27;;;;;;;;;;5016901;28;20018;-61
2022/09/22 11:46:36;;;;;;;1.55;1.45;;;;;;;;;;5014953;28;20534;-60
2022/09/22 11:49:16;;;;;;;1.75;1.65;;;;;;;;;;5012734;28;20176;-64
2022/09/22 11:52:00;;;;;;;1.70;1.30;;;;;;;;;;5012038;28;20933;-64
2022/09/22 11:54:26;;;;;;;1.58;1.48;;;;;;;;;;5014240;28;20100;-64
2022/09/22 11:56:58;;;;;;;1.42;1.33;;;;;;;;;;5015412;28;20029;-61
2022/09/22 11:59:23;;;;;;;1.30;1.30;;;;;;;;;;5014817;28;20028;-65
2022/09/22 12:01:49;;;;;;;1.40;1.30;;;;;;;;;;5013903;28;20033;-61
2022/09/22 12:04:15;;;;;;;1.33;1.23;;;;;;;;;;5015278;28;20020;-66
2022/09/22 12:06:42;;;;;;;1.60;1.50;;;;;;;;;;5015518;28;20392;-67
2022/09/22 12:09:12;;;;;;;1.83;1.45;;;;;;;;;;5016157;28;21031;-66
2022/09/22 12:11:38;;;;;;;1.45;1.42;;;;;;;;;;5009652;28;20026;-67
2022/09/22 12:14:04;;;;;;;1.63;1.42;;;;;;;;;;4993623;28;20056;-62
2022/09/22 12:16:30;;;;;;;1.35;1.33;;;;;;;;;;5011859;28;20129;-65
2022/09/22 12:18:55;;;;;;;1.75;1.65;;;;;;;;;;5011164;28;20025;-64
2022/09/22 12:21:38;;;;;;;1.73;1.63;;;;;;;;;;5014276;28;20108;-65
2022/09/22 12:24:07;;;;;;;1.35;1.25;;;;;;;;;;5013042;28;20022;-64
2022/09/22 12:26:34;;;;;;;1.85;1.75;;;;;;;;;;5011060;28;20053;-64
2022/09/22 12:29:00;;;;;;;1.70;1.60;;;;;;;;;;5010264;28;20481;-65
2022/09/22 12:31:36;;;;;;;2.22;2.03;;;;;;;;;;5013384;28;20156;-59
2022/09/22 12:34:02;;;;;;;1.98;1.88;;;;;;;;;;5013567;28;20068;-64
2022/09/22 12:36:35;;;;;;;1.90;1.80;;;;;;;;;;5016210;28;20468;-64
2022/09/22 12:39:08;;;;;;;2.08;1.98;;;;;;;;;;5011709;28;20022;-64
2022/09/22 12:41:41;;;;;;;2.00;1.90;;;;;;;;;;5013665;28;20037;-64
2022/09/22 12:44:07;;;;;;;1.58;1.48;;;;;;;;;;5014469;28;20017;-64
2022/09/22 12:46:32;;;;;;;2.03;1.85;;;;;;;;;;5015372;28;20029;-64
2022/09/22 12:48:58;;;;;;;5.05;2.55;;;;;;;;;;4996102;28;20605;-65
2022/09/22 12:51:23;;;;;;;2.00;1.90;;;;;;;;;;5013544;28;20026;-66
2022/09/22 12:53:48;;;;;;;1.80;1.70;;;;;;;;;;5013802;28;20515;-63
2022/09/22 12:56:32;;;;;;;1.80;1.70;;;;;;;;;;5013514;28;20045;-63
2022/09/22 12:58:57;;;;;;;2.00;1.90;;;;;;;;;;5013876;28;20029;-64
2022/09/22 13:01:27;;;;;;;1.60;1.50;;;;;;;;;;5015221;28;20395;-62
2022/09/22 13:04:02;;;;;;;1.55;1.50;;;;;;;;;;5013401;28;20112;-63
2022/09/22 13:06:27;;;;;;;1.73;1.60;;;;;;;;;;5012445;28;20139;-62
2022/09/22 13:08:52;;;;;;;1.80;1.70;;;;;;;;;;5013063;28;20460;-62
2022/09/22 13:11:18;;;;;;;1.73;1.63;;;;;;;;;;5014411;28;20022;-59
2022/09/22 13:13:44;;;;;;;1.85;1.70;;;;;;;;;;5011904;28;20030;-61
2022/09/22 13:16:12;;;;;;;2.10;1.88;;;;;;;;;;5008712;28;20032;-62
2022/09/22 13:18:39;;;;;;;1.70;1.60;;;;;;;;;;5011184;28;20373;-63
2022/09/22 13:21:13;;;;;;;2.22;1.80;;;;;;;;;;5015064;28;20053;-62
2022/09/22 13:23:38;;;;;;;1.63;1.50;;;;;;;;;;5013654;28;20546;-65
2022/09/22 13:26:10;;;;;;;1.50;1.40;;;;;;;;;;5014383;28;20049;-66
2022/09/22 13:28:36;;;;;;;2.00;1.90;;;;;;;;;;5014360;28;20095;-67
2022/09/22 13:31:02;;;;;;;1.60;1.50;;;;;;;;;;5014138;28;20038;-66
2022/09/22 13:33:31;;;;;;;1.45;1.35;;;;;;;;;;5014622;28;20108;-66
2022/09/22 13:36:08;;;;;;;3.28;1.67;;;;;;;;;;5013422;28;20199;-66
2022/09/22 13:38:38;;;;;;;1.55;1.45;;;;;;;;;;5013689;28;20026;-66
2022/09/22 13:41:09;;;;;;;2.25;1.98;;;;;;;;;;5014436;28;20021;-66
2022/09/22 13:43:36;;;;;;;2.67;1.70;;;;;;;;;;5013918;28;20472;-67
2022/09/22 13:46:02;;;;;;;1.95;1.85;;;;;;;;;;5014000;28;20033;-68
2022/09/22 13:48:30;;;;;;;1.30;1.30;;;;;;;;;;5012566;28;20017;-66
2022/09/22 13:50:57;;;;;;;2.30;2.15;;;;;;;;;;5013057;28;20022;-67
2022/09/22 13:53:23;;;;;;;1.60;1.50;;;;;;;;;;5013660;28;20091;-67
2022/09/22 13:55:49;;;;;;;3.33;1.75;;;;;;;;;;5010366;28;20029;-67
2022/09/22 13:58:19;;;;;;;2.00;1.90;;;;;;;;;;5008427;28;20559;-66
2022/09/22 14:00:52;;;;;;;1.40;1.40;;;;;;;;;;5012288;28;20079;-66
2022/09/22 14:03:20;;;;;;;1.60;1.50;;;;;;;;;;5012160;28;20025;-64
2022/09/22 14:05:45;;;;;;;1.75;1.60;;;;;;;;;;5009342;28;20057;-66
2022/09/22 14:08:14;;;;;;;1.40;1.40;;;;;;;;;;5008004;28;20041;-61
2022/09/22 14:10:40;;;;;;;1.60;1.50;;;;;;;;;;5010331;28;20471;-62
2022/09/22 14:13:25;;;;;;;2.08;1.88;;;;;;;;;;5007420;28;20794;-62
2022/09/22 14:15:50;;;;;;;2.30;1.35;;;;;;;;;;5009680;28;20034;-62
2022/09/22 14:18:27;;;;;;;7.03;1.73;;;;;;;;;;5008707;28;20038;-62
2022/09/22 14:20:54;;;;;;;3.40;1.50;;;;;;;;;;5011682;28;20064;-64
2022/09/22 14:23:26;;;;;;;1.80;1.67;;;;;;;;;;5012839;28;20991;-62
2022/09/22 14:25:52;;;;;;;2.78;1.52;;;;;;;;;;5003340;28;20099;-63
2022/09/22 14:28:23;;;;;;;1.52;1.40;;;;;;;;;;5013564;28;20103;-63
2022/09/22 14:30:49;;;;;;;1.70;1.60;;;;;;;;;;5012327;28;21025;-62
2022/09/22 14:33:23;;;;;;;2.13;2.00;;;;;;;;;;5012539;28;20033;-61
2022/09/22 14:35:49;;;;;;;2.67;1.70;;;;;;;;;;5009467;28;20034;-61
2022/09/22 14:38:21;;;;;;;2.72;2.53;;;;;;;;;;5012603;28;20120;-62
2022/09/22 14:40:53;;;;;;;2.08;1.90;;;;;;;;;;5009812;28;20044;-60
2022/09/22 14:43:21;;;;;;;1.98;1.90;;;;;;;;;;5009235;28;20048;-62
2022/09/22 14:45:59;;;;;;;2.05;1.95;;;;;;;;;;5009129;28;20025;-61
2022/09/22 14:48:32;;;;;;;2.30;2.13;;;;;;;;;;5007711;28;20022;-61
2022/09/22 14:50:57;;;;;;;2.25;2.15;;;;;;;;;;5011937;28;20799;-62
2022/09/22 14:53:25;;;;;;;1.50;1.40;;;;;;;;;;5012063;28;20029;-67
2022/09/22 14:55:52;;;;;;;1.70;1.60;;;;;;;;;;5011384;28;20610;-64
2022/09/22 14:58:17;;;;;;;1.80;1.70;;;;;;;;;;5008107;28;20084;-64
2022/09/22 15:03:41;;;;;;;1.73;1.60;;;;;;;;;;5012083;28;20080;-63
2022/09/22 15:06:07;;;;;;;2.20;1.35;;;;;;;;;;5012720;28;20032;-65
2022/09/22 15:08:33;;;;;;;1.50;1.40;;;;;;;;;;5011697;28;20044;-64
2022/09/22 15:10:58;;;;;;;1.63;1.50;;;;;;;;;;5007875;28;20049;-64